sensor_id;sensor_type;location;lat;lon;timestamp;temperature;humidity
44607;DHT22;30315;46.072;14.474;2023-07-13T00:01:39;28.10;66.00
44607;DHT22;30315;46.072;14.474;2023-07-13T00:04:06;28.10;65.50
44607;DHT22;30315;46.072;14.474;2023-07-13T00:06:33;28.10;65.80
44607;DHT22;30315;46.072;14.474;2023-07-13T00:09:01;28.10;66.00
44607;DHT22;30315;46.072;14.474;2023-07-13T00:11:28;28.10;66.00
44607;DHT22;30315;46.072;14.474;2023-07-13T00:13:55;28.00;66.40
44607;DHT22;30315;46.072;14.474;2023-07-13T00:16:22;28.00;67.20
44607;DHT22;30315;46.072;14.474;2023-07-13T00:18:49;28.00;66.20
44607;DHT22;30315;46.072;14.474;2023-07-13T00:21:15;27.90;66.20
44607;DHT22;30315;46.072;14.474;2023-07-13T00:23:42;27.90;65.80
44607;DHT22;30315;46.072;14.474;2023-07-13T00:26:10;27.90;66.00
44607;DHT22;30315;46.072;14.474;2023-07-13T00:28:39;27.90;66.30
44607;DHT22;30315;46.072;14.474;2023-07-13T00:31:06;27.90;66.50
44607;DHT22;30315;46.072;14.474;2023-07-13T00:33:35;27.90;66.80
44607;DHT22;30315;46.072;14.474;2023-07-13T00:36:02;27.90;66.70
44607;DHT22;30315;46.072;14.474;2023-07-13T00:38:30;27.80;66.40
44607;DHT22;30315;46.072;14.474;2023-07-13T00:40:56;27.80;66.80
44607;DHT22;30315;46.072;14.474;2023-07-13T00:43:24;27.80;66.90
44607;DHT22;30315;46.072;14.474;2023-07-13T00:48:20;27.70;67.20
44607;DHT22;30315;46.072;14.474;2023-07-13T00:50:51;27.70;67.00
44607;DHT22;30315;46.072;14.474;2023-07-13T00:53:19;27.70;67.00
44607;DHT22;30315;46.072;14.474;2023-07-13T00:55:47;27.70;66.60
44607;DHT22;30315;46.072;14.474;2023-07-13T00:58:15;27.60;67.20
44607;DHT22;30315;46.072;14.474;2023-07-13T01:00:42;27.60;67.00
44607;DHT22;30315;46.072;14.474;2023-07-13T01:03:09;27.60;67.20
44607;DHT22;30315;46.072;14.474;2023-07-13T01:05:36;27.60;67.10
44607;DHT22;30315;46.072;14.474;2023-07-13T01:08:03;27.50;67.00
44607;DHT22;30315;46.072;14.474;2023-07-13T01:10:36;27.50;66.90
44607;DHT22;30315;46.072;14.474;2023-07-13T01:13:06;27.50;66.90
44607;DHT22;30315;46.072;14.474;2023-07-13T01:15:41;27.20;61.80
44607;DHT22;30315;46.072;14.474;2023-07-13T01:18:15;26.80;60.80
44607;DHT22;30315;46.072;14.474;2023-07-13T01:20:52;26.40;62.00
44607;DHT22;30315;46.072;14.474;2023-07-13T01:23:19;26.20;64.10
44607;DHT22;30315;46.072;14.474;2023-07-13T01:25:47;26.00;66.00
44607;DHT22;30315;46.072;14.474;2023-07-13T01:28:14;25.80;67.80
44607;DHT22;30315;46.072;14.474;2023-07-13T01:30:44;25.70;68.10
44607;DHT22;30315;46.072;14.474;2023-07-13T01:33:16;25.60;68.30
44607;DHT22;30315;46.072;14.474;2023-07-13T01:35:44;25.50;68.20
44607;DHT22;30315;46.072;14.474;2023-07-13T01:38:13;25.40;70.20
44607;DHT22;30315;46.072;14.474;2023-07-13T01:40:41;25.30;69.90
44607;DHT22;30315;46.072;14.474;2023-07-13T01:43:07;25.30;72.20
44607;DHT22;30315;46.072;14.474;2023-07-13T01:45:34;25.20;72.00
44607;DHT22;30315;46.072;14.474;2023-07-13T01:48:02;25.20;72.10
44607;DHT22;30315;46.072;14.474;2023-07-13T01:50:29;25.10;73.30
44607;DHT22;30315;46.072;14.474;2023-07-13T01:52:56;25.10;74.10
44607;DHT22;30315;46.072;14.474;2023-07-13T01:55:23;25.10;72.80
44607;DHT22;30315;46.072;14.474;2023-07-13T01:57:49;25.00;72.70
44607;DHT22;30315;46.072;14.474;2023-07-13T02:00:16;25.00;73.40
44607;DHT22;30315;46.072;14.474;2023-07-13T02:02:46;24.90;72.80
44607;DHT22;30315;46.072;14.474;2023-07-13T02:05:13;24.90;72.80
44607;DHT22;30315;46.072;14.474;2023-07-13T02:07:40;24.90;73.20
44607;DHT22;30315;46.072;14.474;2023-07-13T02:10:08;24.90;72.80
44607;DHT22;30315;46.072;14.474;2023-07-13T02:12:35;24.80;72.20
44607;DHT22;30315;46.072;14.474;2023-07-13T02:15:03;24.80;71.80
44607;DHT22;30315;46.072;14.474;2023-07-13T02:17:30;24.70;71.90
44607;DHT22;30315;46.072;14.474;2023-07-13T02:22:47;24.70;74.30
44607;DHT22;30315;46.072;14.474;2023-07-13T02:25:14;25.00;74.00
44607;DHT22;30315;46.072;14.474;2023-07-13T02:27:41;24.70;72.70
44607;DHT22;30315;46.072;14.474;2023-07-13T02:30:09;24.70;72.50
44607;DHT22;30315;46.072;14.474;2023-07-13T02:32:37;24.60;73.60
44607;DHT22;30315;46.072;14.474;2023-07-13T02:35:04;24.60;75.30
44607;DHT22;30315;46.072;14.474;2023-07-13T02:37:31;24.60;75.70
44607;DHT22;30315;46.072;14.474;2023-07-13T02:39:58;24.50;75.90
44607;DHT22;30315;46.072;14.474;2023-07-13T02:42:25;24.50;76.20
44607;DHT22;30315;46.072;14.474;2023-07-13T02:44:52;24.50;76.20
44607;DHT22;30315;46.072;14.474;2023-07-13T02:47:18;24.50;77.50
44607;DHT22;30315;46.072;14.474;2023-07-13T02:49:45;24.50;77.30
44607;DHT22;30315;46.072;14.474;2023-07-13T02:52:12;24.50;77.20
44607;DHT22;30315;46.072;14.474;2023-07-13T02:54:39;24.50;77.00
44607;DHT22;30315;46.072;14.474;2023-07-13T02:57:06;24.50;77.20
44607;DHT22;30315;46.072;14.474;2023-07-13T02:59:33;24.60;76.60
44607;DHT22;30315;46.072;14.474;2023-07-13T03:02:01;24.50;78.40
44607;DHT22;30315;46.072;14.474;2023-07-13T03:04:29;24.50;77.80
44607;DHT22;30315;46.072;14.474;2023-07-13T03:06:56;24.40;77.60
44607;DHT22;30315;46.072;14.474;2023-07-13T03:09:31;24.50;77.90
44607;DHT22;30315;46.072;14.474;2023-07-13T03:11:59;24.50;77.90
44607;DHT22;30315;46.072;14.474;2023-07-13T03:14:29;24.50;77.30
44607;DHT22;30315;46.072;14.474;2023-07-13T03:16:58;24.40;76.50
44607;DHT22;30315;46.072;14.474;2023-07-13T03:19:28;24.40;76.70
44607;DHT22;30315;46.072;14.474;2023-07-13T03:21:55;24.40;76.90
44607;DHT22;30315;46.072;14.474;2023-07-13T03:24:22;24.30;78.10
44607;DHT22;30315;46.072;14.474;2023-07-13T03:26:51;24.40;77.40
44607;DHT22;30315;46.072;14.474;2023-07-13T03:29:18;24.30;78.20
44607;DHT22;30315;46.072;14.474;2023-07-13T03:31:45;24.30;78.20
44607;DHT22;30315;46.072;14.474;2023-07-13T03:34:13;24.30;77.10
44607;DHT22;30315;46.072;14.474;2023-07-13T03:36:41;24.30;76.60
44607;DHT22;30315;46.072;14.474;2023-07-13T03:39:11;24.20;76.10
44607;DHT22;30315;46.072;14.474;2023-07-13T03:41:46;24.20;76.10
44607;DHT22;30315;46.072;14.474;2023-07-13T03:44:15;24.20;76.50
44607;DHT22;30315;46.072;14.474;2023-07-13T03:46:42;24.20;76.10
44607;DHT22;30315;46.072;14.474;2023-07-13T03:49:10;24.20;75.80
44607;DHT22;30315;46.072;14.474;2023-07-13T03:51:37;24.20;75.80
44607;DHT22;30315;46.072;14.474;2023-07-13T03:54:04;24.20;76.20
44607;DHT22;30315;46.072;14.474;2023-07-13T03:56:31;24.20;76.30
44607;DHT22;30315;46.072;14.474;2023-07-13T03:59:02;24.20;76.00
44607;DHT22;30315;46.072;14.474;2023-07-13T04:01:29;24.10;75.90
44607;DHT22;30315;46.072;14.474;2023-07-13T04:03:57;24.10;75.80
44607;DHT22;30315;46.072;14.474;2023-07-13T04:06:30;24.10;77.00
44607;DHT22;30315;46.072;14.474;2023-07-13T04:08:58;24.10;75.90
44607;DHT22;30315;46.072;14.474;2023-07-13T04:11:26;24.10;75.70
44607;DHT22;30315;46.072;14.474;2023-07-13T04:13:54;24.00;76.30
44607;DHT22;30315;46.072;14.474;2023-07-13T04:16:21;24.00;76.50
44607;DHT22;30315;46.072;14.474;2023-07-13T04:18:49;24.00;76.60
44607;DHT22;30315;46.072;14.474;2023-07-13T04:21:16;24.00;76.70
44607;DHT22;30315;46.072;14.474;2023-07-13T04:23:43;24.00;76.90
44607;DHT22;30315;46.072;14.474;2023-07-13T04:26:10;24.10;76.60
44607;DHT22;30315;46.072;14.474;2023-07-13T04:28:38;24.00;75.80
44607;DHT22;30315;46.072;14.474;2023-07-13T04:31:05;24.00;76.30
44607;DHT22;30315;46.072;14.474;2023-07-13T04:33:33;24.00;76.10
44607;DHT22;30315;46.072;14.474;2023-07-13T04:36:00;24.00;76.60
44607;DHT22;30315;46.072;14.474;2023-07-13T04:38:29;24.00;77.00
44607;DHT22;30315;46.072;14.474;2023-07-13T04:40:58;23.90;76.80
44607;DHT22;30315;46.072;14.474;2023-07-13T04:43:26;24.00;77.00
44607;DHT22;30315;46.072;14.474;2023-07-13T04:45:53;24.00;77.10
44607;DHT22;30315;46.072;14.474;2023-07-13T04:48:21;24.00;76.90
44607;DHT22;30315;46.072;14.474;2023-07-13T04:50:55;24.00;76.80
44607;DHT22;30315;46.072;14.474;2023-07-13T04:53:23;24.00;76.40
44607;DHT22;30315;46.072;14.474;2023-07-13T04:55:50;24.00;76.20
44607;DHT22;30315;46.072;14.474;2023-07-13T04:58:18;24.00;76.80
44607;DHT22;30315;46.072;14.474;2023-07-13T05:00:45;24.00;76.90
44607;DHT22;30315;46.072;14.474;2023-07-13T05:03:12;24.00;77.30
44607;DHT22;30315;46.072;14.474;2023-07-13T05:05:39;24.00;77.20
44607;DHT22;30315;46.072;14.474;2023-07-13T05:08:06;24.10;77.20
44607;DHT22;30315;46.072;14.474;2023-07-13T05:10:34;24.00;76.50
44607;DHT22;30315;46.072;14.474;2023-07-13T05:13:01;24.10;76.50
44607;DHT22;30315;46.072;14.474;2023-07-13T05:15:28;24.10;76.90
44607;DHT22;30315;46.072;14.474;2023-07-13T05:17:55;24.10;77.90
44607;DHT22;30315;46.072;14.474;2023-07-13T05:20:22;24.10;78.30
44607;DHT22;30315;46.072;14.474;2023-07-13T05:22:49;24.10;77.60
44607;DHT22;30315;46.072;14.474;2023-07-13T05:25:17;24.10;77.30
44607;DHT22;30315;46.072;14.474;2023-07-13T05:27:44;24.20;77.90
44607;DHT22;30315;46.072;14.474;2023-07-13T05:30:12;24.30;78.00
44607;DHT22;30315;46.072;14.474;2023-07-13T05:32:40;24.30;78.60
44607;DHT22;30315;46.072;14.474;2023-07-13T05:35:07;24.30;78.00
44607;DHT22;30315;46.072;14.474;2023-07-13T05:37:34;24.30;77.90
44607;DHT22;30315;46.072;14.474;2023-07-13T05:40:01;24.30;78.20
44607;DHT22;30315;46.072;14.474;2023-07-13T05:42:28;24.30;78.20
44607;DHT22;30315;46.072;14.474;2023-07-13T05:44:55;24.30;78.00
44607;DHT22;30315;46.072;14.474;2023-07-13T05:47:22;24.30;77.60
44607;DHT22;30315;46.072;14.474;2023-07-13T05:49:49;24.30;77.90
44607;DHT22;30315;46.072;14.474;2023-07-13T05:52:16;24.30;77.30
44607;DHT22;30315;46.072;14.474;2023-07-13T05:54:43;24.30;76.70
44607;DHT22;30315;46.072;14.474;2023-07-13T05:57:10;24.30;76.80
44607;DHT22;30315;46.072;14.474;2023-07-13T05:59:37;24.30;76.90
44607;DHT22;30315;46.072;14.474;2023-07-13T06:02:05;24.30;77.30
44607;DHT22;30315;46.072;14.474;2023-07-13T06:04:32;24.40;77.90
44607;DHT22;30315;46.072;14.474;2023-07-13T06:06:59;24.40;77.60
44607;DHT22;30315;46.072;14.474;2023-07-13T06:09:26;24.40;78.30
44607;DHT22;30315;46.072;14.474;2023-07-13T06:11:53;24.40;77.30
44607;DHT22;30315;46.072;14.474;2023-07-13T06:14:20;24.50;77.90
44607;DHT22;30315;46.072;14.474;2023-07-13T06:16:47;24.50;78.40
44607;DHT22;30315;46.072;14.474;2023-07-13T06:19:14;24.50;78.10
44607;DHT22;30315;46.072;14.474;2023-07-13T06:21:41;24.50;77.00
44607;DHT22;30315;46.072;14.474;2023-07-13T06:24:08;24.60;77.90
44607;DHT22;30315;46.072;14.474;2023-07-13T06:26:35;24.60;78.50
44607;DHT22;30315;46.072;14.474;2023-07-13T06:29:03;24.60;78.20
44607;DHT22;30315;46.072;14.474;2023-07-13T06:31:30;24.70;78.20
44607;DHT22;30315;46.072;14.474;2023-07-13T06:33:58;24.70;78.30
44607;DHT22;30315;46.072;14.474;2023-07-13T06:36:25;24.70;78.10
44607;DHT22;30315;46.072;14.474;2023-07-13T06:38:52;24.70;78.40
44607;DHT22;30315;46.072;14.474;2023-07-13T06:41:19;24.70;78.20
44607;DHT22;30315;46.072;14.474;2023-07-13T06:43:47;24.70;77.30
44607;DHT22;30315;46.072;14.474;2023-07-13T06:46:14;24.70;77.20
44607;DHT22;30315;46.072;14.474;2023-07-13T06:48:41;24.70;77.30
44607;DHT22;30315;46.072;14.474;2023-07-13T06:51:08;24.70;77.10
44607;DHT22;30315;46.072;14.474;2023-07-13T06:53:36;24.40;76.30
44607;DHT22;30315;46.072;14.474;2023-07-13T06:56:03;24.70;77.10
44607;DHT22;30315;46.072;14.474;2023-07-13T06:58:30;24.70;77.50
44607;DHT22;30315;46.072;14.474;2023-07-13T07:00:58;24.70;77.90
44607;DHT22;30315;46.072;14.474;2023-07-13T07:03:25;24.80;77.20
44607;DHT22;30315;46.072;14.474;2023-07-13T07:06:00;24.80;77.20
44607;DHT22;30315;46.072;14.474;2023-07-13T07:08:27;25.00;77.70
44607;DHT22;30315;46.072;14.474;2023-07-13T07:10:54;24.90;77.30
44607;DHT22;30315;46.072;14.474;2023-07-13T07:13:21;24.80;78.10
44607;DHT22;30315;46.072;14.474;2023-07-13T07:15:49;24.90;78.30
44607;DHT22;30315;46.072;14.474;2023-07-13T07:18:16;24.90;78.00
44607;DHT22;30315;46.072;14.474;2023-07-13T07:20:43;25.00;78.10
44607;DHT22;30315;46.072;14.474;2023-07-13T07:23:11;25.00;78.20
44607;DHT22;30315;46.072;14.474;2023-07-13T07:25:38;25.00;78.10
44607;DHT22;30315;46.072;14.474;2023-07-13T07:28:08;25.00;77.10
44607;DHT22;30315;46.072;14.474;2023-07-13T07:30:41;25.00;77.20
44607;DHT22;30315;46.072;14.474;2023-07-13T07:33:12;25.00;77.60
44607;DHT22;30315;46.072;14.474;2023-07-13T07:35:40;25.10;78.10
44607;DHT22;30315;46.072;14.474;2023-07-13T07:38:27;25.10;78.80
44607;DHT22;30315;46.072;14.474;2023-07-13T07:40:54;25.20;79.00
44607;DHT22;30315;46.072;14.474;2023-07-13T07:43:24;25.20;78.40
44607;DHT22;30315;46.072;14.474;2023-07-13T07:45:51;25.30;78.50
44607;DHT22;30315;46.072;14.474;2023-07-13T07:48:19;25.30;78.60
44607;DHT22;30315;46.072;14.474;2023-07-13T07:50:46;25.40;78.60
44607;DHT22;30315;46.072;14.474;2023-07-13T07:53:13;25.40;77.30
44607;DHT22;30315;46.072;14.474;2023-07-13T07:55:40;25.30;76.80
44607;DHT22;30315;46.072;14.474;2023-07-13T07:58:28;25.30;77.40
44607;DHT22;30315;46.072;14.474;2023-07-13T08:01:02;25.40;78.10
44607;DHT22;30315;46.072;14.474;2023-07-13T08:03:32;25.40;77.80
44607;DHT22;30315;46.072;14.474;2023-07-13T08:06:02;25.90;78.20
44607;DHT22;30315;46.072;14.474;2023-07-13T08:08:34;25.50;77.90
44607;DHT22;30315;46.072;14.474;2023-07-13T08:11:07;25.60;78.10
44607;DHT22;30315;46.072;14.474;2023-07-13T08:13:37;25.60;77.40
44607;DHT22;30315;46.072;14.474;2023-07-13T08:16:05;25.70;77.60
44607;DHT22;30315;46.072;14.474;2023-07-13T08:18:33;25.80;76.80
44607;DHT22;30315;46.072;14.474;2023-07-13T08:21:04;25.80;76.40
44607;DHT22;30315;46.072;14.474;2023-07-13T08:23:31;25.80;76.30
44607;DHT22;30315;46.072;14.474;2023-07-13T08:25:59;25.90;76.10
44607;DHT22;30315;46.072;14.474;2023-07-13T08:28:28;26.00;76.40
44607;DHT22;30315;46.072;14.474;2023-07-13T08:31:00;26.00;76.80
44607;DHT22;30315;46.072;14.474;2023-07-13T08:33:27;26.10;76.50
44607;DHT22;30315;46.072;14.474;2023-07-13T08:35:54;26.00;76.20
44607;DHT22;30315;46.072;14.474;2023-07-13T08:38:21;26.10;76.50
44607;DHT22;30315;46.072;14.474;2023-07-13T08:40:50;26.20;76.00
44607;DHT22;30315;46.072;14.474;2023-07-13T08:43:19;26.20;75.60
44607;DHT22;30315;46.072;14.474;2023-07-13T08:45:55;26.20;76.60
44607;DHT22;30315;46.072;14.474;2023-07-13T08:48:25;26.30;75.20
44607;DHT22;30315;46.072;14.474;2023-07-13T08:53:37;26.30;73.90
44607;DHT22;30315;46.072;14.474;2023-07-13T08:56:05;26.30;73.30
44607;DHT22;30315;46.072;14.474;2023-07-13T08:58:35;26.40;73.70
44607;DHT22;30315;46.072;14.474;2023-07-13T09:01:10;26.50;74.00
44607;DHT22;30315;46.072;14.474;2023-07-13T09:04:04;26.50;73.80
44607;DHT22;30315;46.072;14.474;2023-07-13T09:06:33;26.50;74.00
44607;DHT22;30315;46.072;14.474;2023-07-13T09:09:02;26.70;74.20
44607;DHT22;30315;46.072;14.474;2023-07-13T09:11:45;26.70;73.50
44607;DHT22;30315;46.072;14.474;2023-07-13T09:16:43;26.70;72.70
44607;DHT22;30315;46.072;14.474;2023-07-13T09:19:20;26.80;72.80
44607;DHT22;30315;46.072;14.474;2023-07-13T09:21:49;26.80;73.20
44607;DHT22;30315;46.072;14.474;2023-07-13T09:24:37;26.80;73.40
44607;DHT22;30315;46.072;14.474;2023-07-13T09:27:13;26.80;73.10
44607;DHT22;30315;46.072;14.474;2023-07-13T09:29:41;26.80;72.80
44607;DHT22;30315;46.072;14.474;2023-07-13T09:32:10;26.80;73.40
44607;DHT22;30315;46.072;14.474;2023-07-13T09:34:39;26.90;73.60
44607;DHT22;30315;46.072;14.474;2023-07-13T09:37:06;26.90;72.80
44607;DHT22;30315;46.072;14.474;2023-07-13T09:39:35;26.90;72.50
44607;DHT22;30315;46.072;14.474;2023-07-13T09:44:34;27.10;73.20
44607;DHT22;30315;46.072;14.474;2023-07-13T09:47:02;27.20;73.70
44607;DHT22;30315;46.072;14.474;2023-07-13T09:49:36;27.20;73.30
44607;DHT22;30315;46.072;14.474;2023-07-13T09:52:05;27.30;73.50
44607;DHT22;30315;46.072;14.474;2023-07-13T09:54:34;27.30;73.30
44607;DHT22;30315;46.072;14.474;2023-07-13T09:57:01;27.30;72.70
44607;DHT22;30315;46.072;14.474;2023-07-13T09:59:29;27.30;72.60
44607;DHT22;30315;46.072;14.474;2023-07-13T10:01:56;27.40;71.80
44607;DHT22;30315;46.072;14.474;2023-07-13T10:04:28;27.30;70.70
44607;DHT22;30315;46.072;14.474;2023-07-13T10:07:04;27.30;71.20
44607;DHT22;30315;46.072;14.474;2023-07-13T10:09:52;27.20;72.00
44607;DHT22;30315;46.072;14.474;2023-07-13T10:12:20;27.30;72.30
44607;DHT22;30315;46.072;14.474;2023-07-13T10:14:47;27.20;72.70
44607;DHT22;30315;46.072;14.474;2023-07-13T10:17:14;27.20;73.40
44607;DHT22;30315;46.072;14.474;2023-07-13T10:19:43;27.20;74.80
44607;DHT22;30315;46.072;14.474;2023-07-13T10:24:51;27.10;75.90
44607;DHT22;30315;46.072;14.474;2023-07-13T10:27:20;27.10;76.40
44607;DHT22;30315;46.072;14.474;2023-07-13T10:29:59;27.10;76.70
44607;DHT22;30315;46.072;14.474;2023-07-13T10:32:28;27.00;76.30
44607;DHT22;30315;46.072;14.474;2023-07-13T10:34:56;27.00;76.20
44607;DHT22;30315;46.072;14.474;2023-07-13T10:37:29;26.90;76.90
44607;DHT22;30315;46.072;14.474;2023-07-13T10:39:58;27.00;77.80
44607;DHT22;30315;46.072;14.474;2023-07-13T10:42:29;26.90;78.20
44607;DHT22;30315;46.072;14.474;2023-07-13T10:44:57;27.00;79.30
44607;DHT22;30315;46.072;14.474;2023-07-13T10:47:25;27.00;79.80
44607;DHT22;30315;46.072;14.474;2023-07-13T10:49:55;27.00;79.60
44607;DHT22;30315;46.072;14.474;2023-07-13T10:52:37;27.00;80.00
44607;DHT22;30315;46.072;14.474;2023-07-13T10:57:54;26.90;79.60
44607;DHT22;30315;46.072;14.474;2023-07-13T11:00:21;26.90;80.00
44607;DHT22;30315;46.072;14.474;2023-07-13T11:02:58;27.00;80.00
44607;DHT22;30315;46.072;14.474;2023-07-13T11:05:30;26.90;79.90
44607;DHT22;30315;46.072;14.474;2023-07-13T11:08:13;27.30;80.10
44607;DHT22;30315;46.072;14.474;2023-07-13T11:10:51;26.80;80.40
44607;DHT22;30315;46.072;14.474;2023-07-13T11:13:35;26.80;80.90
44607;DHT22;30315;46.072;14.474;2023-07-13T11:16:12;26.80;81.60
44607;DHT22;30315;46.072;14.474;2023-07-13T11:18:40;26.70;82.40
44607;DHT22;30315;46.072;14.474;2023-07-13T11:21:23;26.70;83.30
44607;DHT22;30315;46.072;14.474;2023-07-13T11:31:53;26.60;85.50
44607;DHT22;30315;46.072;14.474;2023-07-13T11:34:27;26.90;85.40
44607;DHT22;30315;46.072;14.474;2023-07-13T11:36:56;26.60;85.60
44607;DHT22;30315;46.072;14.474;2023-07-13T11:39:32;26.60;85.40
44607;DHT22;30315;46.072;14.474;2023-07-13T11:42:02;26.50;85.50
44607;DHT22;30315;46.072;14.474;2023-07-13T11:44:33;26.50;85.60
44607;DHT22;30315;46.072;14.474;2023-07-13T11:47:10;26.50;86.20
44607;DHT22;30315;46.072;14.474;2023-07-13T11:49:44;26.40;85.10
44607;DHT22;30315;46.072;14.474;2023-07-13T11:52:14;26.40;85.20
44607;DHT22;30315;46.072;14.474;2023-07-13T11:54:46;26.40;85.40
44607;DHT22;30315;46.072;14.474;2023-07-13T11:59:51;26.20;85.00
44607;DHT22;30315;46.072;14.474;2023-07-13T12:02:32;26.10;85.10
44607;DHT22;30315;46.072;14.474;2023-07-13T12:04:59;26.00;84.50
44607;DHT22;30315;46.072;14.474;2023-07-13T12:07:28;25.90;84.50
44607;DHT22;30315;46.072;14.474;2023-07-13T12:10:00;25.70;84.90
44607;DHT22;30315;46.072;14.474;2023-07-13T12:12:28;25.60;85.40
44607;DHT22;30315;46.072;14.474;2023-07-13T12:14:55;25.50;84.60
44607;DHT22;30315;46.072;14.474;2023-07-13T12:17:23;25.30;85.20
44607;DHT22;30315;46.072;14.474;2023-07-13T12:19:51;25.20;86.00
44607;DHT22;30315;46.072;14.474;2023-07-13T12:22:19;25.10;83.80
44607;DHT22;30315;46.072;14.474;2023-07-13T12:24:47;24.90;82.90
44607;DHT22;30315;46.072;14.474;2023-07-13T12:29:50;24.60;82.10
44607;DHT22;30315;46.072;14.474;2023-07-13T12:32:17;24.60;83.40
44607;DHT22;30315;46.072;14.474;2023-07-13T12:34:52;24.60;83.90
44607;DHT22;30315;46.072;14.474;2023-07-13T12:37:19;24.50;85.30
44607;DHT22;30315;46.072;14.474;2023-07-13T12:39:46;24.50;84.70
44607;DHT22;30315;46.072;14.474;2023-07-13T12:44:43;24.50;86.20
44607;DHT22;30315;46.072;14.474;2023-07-13T12:47:11;24.50;85.30
44607;DHT22;30315;46.072;14.474;2023-07-13T12:49:43;24.50;86.00
44607;DHT22;30315;46.072;14.474;2023-07-13T12:52:14;24.50;88.30
44607;DHT22;30315;46.072;14.474;2023-07-13T12:54:42;24.50;88.30
44607;DHT22;30315;46.072;14.474;2023-07-13T12:57:31;24.50;88.30
44607;DHT22;30315;46.072;14.474;2023-07-13T12:59:58;24.60;89.00
44607;DHT22;30315;46.072;14.474;2023-07-13T13:02:34;24.60;89.00
44607;DHT22;30315;46.072;14.474;2023-07-13T13:05:02;24.70;88.70
44607;DHT22;30315;46.072;14.474;2023-07-13T13:07:31;24.70;90.00
44607;DHT22;30315;46.072;14.474;2023-07-13T13:09:57;24.70;90.00
44607;DHT22;30315;46.072;14.474;2023-07-13T13:12:24;24.70;89.50
44607;DHT22;30315;46.072;14.474;2023-07-13T13:14:53;24.60;89.80
44607;DHT22;30315;46.072;14.474;2023-07-13T13:17:21;24.60;90.10
44607;DHT22;30315;46.072;14.474;2023-07-13T13:19:50;24.60;90.40
44607;DHT22;30315;46.072;14.474;2023-07-13T13:22:16;24.70;91.00
44607;DHT22;30315;46.072;14.474;2023-07-13T13:24:44;24.70;91.10
44607;DHT22;30315;46.072;14.474;2023-07-13T13:27:18;24.70;91.50
44607;DHT22;30315;46.072;14.474;2023-07-13T13:29:45;24.80;91.70
44607;DHT22;30315;46.072;14.474;2023-07-13T13:32:13;24.80;91.40
44607;DHT22;30315;46.072;14.474;2023-07-13T13:34:41;24.80;90.90
44607;DHT22;30315;46.072;14.474;2023-07-13T13:37:11;24.80;90.90
44607;DHT22;30315;46.072;14.474;2023-07-13T13:39:43;24.80;91.40
44607;DHT22;30315;46.072;14.474;2023-07-13T13:42:24;24.80;91.20
44607;DHT22;30315;46.072;14.474;2023-07-13T13:44:52;24.90;91.80
44607;DHT22;30315;46.072;14.474;2023-07-13T13:47:21;25.00;91.90
44607;DHT22;30315;46.072;14.474;2023-07-13T13:49:50;25.10;91.30
44607;DHT22;30315;46.072;14.474;2023-07-13T13:52:17;25.20;91.60
44607;DHT22;30315;46.072;14.474;2023-07-13T13:54:44;25.30;91.60
44607;DHT22;30315;46.072;14.474;2023-07-13T13:57:11;25.40;91.50
44607;DHT22;30315;46.072;14.474;2023-07-13T13:59:39;25.60;91.30
44607;DHT22;30315;46.072;14.474;2023-07-13T14:02:20;25.60;90.60
44607;DHT22;30315;46.072;14.474;2023-07-13T14:04:50;25.70;90.50
44607;DHT22;30315;46.072;14.474;2023-07-13T14:07:20;25.70;91.00
44607;DHT22;30315;46.072;14.474;2023-07-13T14:09:47;25.90;91.00
44607;DHT22;30315;46.072;14.474;2023-07-13T14:12:14;26.00;90.40
44607;DHT22;30315;46.072;14.474;2023-07-13T14:14:42;26.10;90.00
44607;DHT22;30315;46.072;14.474;2023-07-13T14:17:21;26.00;89.40
44607;DHT22;30315;46.072;14.474;2023-07-13T14:19:50;26.10;89.80
44607;DHT22;30315;46.072;14.474;2023-07-13T14:22:17;26.20;90.40
44607;DHT22;30315;46.072;14.474;2023-07-13T14:24:45;26.30;90.90
44607;DHT22;30315;46.072;14.474;2023-07-13T14:27:12;26.40;90.80
44607;DHT22;30315;46.072;14.474;2023-07-13T14:29:39;26.60;90.30
44607;DHT22;30315;46.072;14.474;2023-07-13T14:32:09;26.60;90.40
44607;DHT22;30315;46.072;14.474;2023-07-13T14:34:37;26.70;89.50
44607;DHT22;30315;46.072;14.474;2023-07-13T14:37:11;26.70;89.10
44607;DHT22;30315;46.072;14.474;2023-07-13T14:39:40;26.60;87.40
44607;DHT22;30315;46.072;14.474;2023-07-13T14:42:09;26.60;86.90
44607;DHT22;30315;46.072;14.474;2023-07-13T14:44:37;26.50;87.70
44607;DHT22;30315;46.072;14.474;2023-07-13T14:47:05;26.40;87.30
44607;DHT22;30315;46.072;14.474;2023-07-13T14:49:37;26.30;87.40
44607;DHT22;30315;46.072;14.474;2023-07-13T14:54:40;26.20;86.80
44607;DHT22;30315;46.072;14.474;2023-07-13T14:57:11;26.00;87.00
44607;DHT22;30315;46.072;14.474;2023-07-13T14:59:38;26.00;88.70
44607;DHT22;30315;46.072;14.474;2023-07-13T15:02:19;26.00;89.30
44607;DHT22;30315;46.072;14.474;2023-07-13T15:04:51;26.00;89.30
44607;DHT22;30315;46.072;14.474;2023-07-13T15:07:18;25.90;89.40
44607;DHT22;30315;46.072;14.474;2023-07-13T15:09:47;25.90;89.30
44607;DHT22;30315;46.072;14.474;2023-07-13T15:12:14;25.80;89.30
44607;DHT22;30315;46.072;14.474;2023-07-13T15:14:41;25.90;88.30
44607;DHT22;30315;46.072;14.474;2023-07-13T15:17:26;25.70;87.80
44607;DHT22;30315;46.072;14.474;2023-07-13T15:19:54;25.70;87.80
44607;DHT22;30315;46.072;14.474;2023-07-13T15:22:22;25.60;88.20
44607;DHT22;30315;46.072;14.474;2023-07-13T15:24:49;25.60;88.50
44607;DHT22;30315;46.072;14.474;2023-07-13T15:27:16;25.50;88.10
44607;DHT22;30315;46.072;14.474;2023-07-13T15:29:43;25.40;88.50
44607;DHT22;30315;46.072;14.474;2023-07-13T15:32:14;25.30;89.40
44607;DHT22;30315;46.072;14.474;2023-07-13T15:34:41;25.20;89.90
44607;DHT22;30315;46.072;14.474;2023-07-13T15:37:15;25.20;90.80
44607;DHT22;30315;46.072;14.474;2023-07-13T15:39:42;25.20;90.90
44607;DHT22;30315;46.072;14.474;2023-07-13T15:42:13;25.10;91.00
44607;DHT22;30315;46.072;14.474;2023-07-13T15:44:40;25.10;91.10
44607;DHT22;30315;46.072;14.474;2023-07-13T15:47:11;25.00;91.30
44607;DHT22;30315;46.072;14.474;2023-07-13T15:49:39;25.00;91.40
44607;DHT22;30315;46.072;14.474;2023-07-13T15:52:16;24.90;91.30
44607;DHT22;30315;46.072;14.474;2023-07-13T15:54:44;24.80;91.80
44607;DHT22;30315;46.072;14.474;2023-07-13T15:57:18;24.80;92.00
44607;DHT22;30315;46.072;14.474;2023-07-13T15:59:45;24.80;92.70
44607;DHT22;30315;46.072;14.474;2023-07-13T16:02:13;24.80;93.30
44607;DHT22;30315;46.072;14.474;2023-07-13T16:04:42;24.80;93.70